EFW79YW EGKK-LEIB
Flight info
| Callsign | EFW79YW |
|---|---|
| Flight time | 1h 52m |
| Altitude | 37000 |
| Route | SFD Y47 BENBO UY47 DRAKE L151 SITET UN859 SOPIL DCT BALAN DCT EVPOK DCT NARAK DCT GAI DCT LOMRA DCT ROCAN DCT PUMAL N859 BCN Z174 CORDA |
| Aircraft | A320/M-SDE3FGIJ1RWXY/SB1 |
Departure
| Time | 2026-04-14 09:03 |
|---|---|
| Airport | London Gatwick Airport (EGKK) |
Arrival
| Time | 2026-04-14 10:55 |
|---|---|
| Airport | Ibiza Airport (LEIB) |
| Time | Latitude | Longitude | Altitude | Speed | Heading |
|---|---|---|---|---|---|
| 2026-04-14 08:19 | 51.15446 | -0.16419 | 210 ft | 0 kts | 77° |
| 2026-04-14 08:51 | 51.15445 | -0.16421 | 209 ft | 2 kts | 77° |
| 2026-04-14 08:51 | 51.15439 | -0.16459 | 213 ft | 4 kts | 65° |
| 2026-04-14 08:52 | 51.15425 | -0.16494 | 212 ft | 4 kts | 33° |
| 2026-04-14 08:52 | 51.15407 | -0.16502 | 211 ft | 1 kts | 348° |
| 2026-04-14 08:52 | 51.15404 | -0.16501 | 210 ft | 0 kts | 348° |
| 2026-04-14 08:55 | 51.15413 | -0.16505 | 208 ft | 2 kts | 340° |
| 2026-04-14 08:56 | 51.15415 | -0.16531 | 217 ft | 4 kts | 271° |
| 2026-04-14 08:56 | 51.15406 | -0.16593 | 210 ft | 7 kts | 257° |
| 2026-04-14 08:56 | 51.15393 | -0.16684 | 210 ft | 10 kts | 257° |
| 2026-04-14 08:56 | 51.15376 | -0.16803 | 213 ft | 12 kts | 257° |
| 2026-04-14 08:57 | 51.15356 | -0.16950 | 213 ft | 15 kts | 258° |
| 2026-04-14 08:57 | 51.15334 | -0.17109 | 208 ft | 11 kts | 257° |
| 2026-04-14 08:57 | 51.15310 | -0.17207 | 214 ft | 10 kts | 221° |
| 2026-04-14 08:57 | 51.15247 | -0.17251 | 209 ft | 11 kts | 232° |
| 2026-04-14 08:58 | 51.15224 | -0.17383 | 208 ft | 14 kts | 258° |
| 2026-04-14 08:58 | 51.15202 | -0.17543 | 211 ft | 16 kts | 257° |
| 2026-04-14 08:58 | 51.15176 | -0.17725 | 212 ft | 18 kts | 257° |
| 2026-04-14 08:58 | 51.15148 | -0.17929 | 210 ft | 20 kts | 257° |
| 2026-04-14 08:59 | 51.15116 | -0.18158 | 209 ft | 23 kts | 258° |
| 2026-04-14 08:59 | 51.15092 | -0.18330 | 207 ft | 25 kts | 257° |
| 2026-04-14 08:59 | 51.15054 | -0.18613 | 216 ft | 27 kts | 258° |
| 2026-04-14 08:59 | 51.15000 | -0.19009 | 216 ft | 27 kts | 258° |
| 2026-04-14 09:00 | 51.14960 | -0.19293 | 211 ft | 26 kts | 257° |
| 2026-04-14 09:00 | 51.14932 | -0.19488 | 214 ft | 28 kts | 257° |
| 2026-04-14 09:00 | 51.14892 | -0.19789 | 210 ft | 29 kts | 259° |
| 2026-04-14 09:00 | 51.14850 | -0.20087 | 213 ft | 28 kts | 257° |
| 2026-04-14 09:01 | 51.14808 | -0.20394 | 213 ft | 25 kts | 258° |
| 2026-04-14 09:01 | 51.14772 | -0.20653 | 208 ft | 25 kts | 257° |
| 2026-04-14 09:01 | 51.14734 | -0.20920 | 212 ft | 25 kts | 257° |
| 2026-04-14 09:01 | 51.14703 | -0.21162 | 209 ft | 18 kts | 258° |
| 2026-04-14 09:02 | 51.14679 | -0.21305 | 213 ft | 11 kts | 237° |
| 2026-04-14 09:02 | 51.14599 | -0.21321 | 213 ft | 14 kts | 167° |
| 2026-04-14 09:02 | 51.14523 | -0.21228 | 215 ft | 16 kts | 111° |
| 2026-04-14 09:02 | 51.14537 | -0.21035 | 208 ft | 25 kts | 78° |
| 2026-04-14 09:03 | 51.14623 | -0.20409 | 210 ft | 91 kts | 77° |
| 2026-04-14 09:03 | 51.14799 | -0.19130 | 213 ft | 143 kts | 77° |
| 2026-04-14 09:03 | 51.15040 | -0.17489 | 602 ft | 148 kts | 81° |
| 2026-04-14 09:03 | 51.15267 | -0.15871 | 1181 ft | 152 kts | 82° |
| 2026-04-14 09:04 | 51.15496 | -0.14183 | 1697 ft | 163 kts | 83° |
| 2026-04-14 09:04 | 51.15743 | -0.12297 | 1931 ft | 186 kts | 83° |
| 2026-04-14 09:04 | 51.16027 | -0.10150 | 2176 ft | 209 kts | 83° |
| 2026-04-14 09:04 | 51.16118 | -0.07779 | 2568 ft | 221 kts | 110° |
| 2026-04-14 09:05 | 51.15298 | -0.05804 | 3189 ft | 224 kts | 147° |
| 2026-04-14 09:05 | 51.13807 | -0.04873 | 3753 ft | 239 kts | 168° |
| 2026-04-14 09:05 | 51.12151 | -0.04296 | 4612 ft | 246 kts | 171° |
| 2026-04-14 09:05 | 51.10449 | -0.03761 | 5466 ft | 253 kts | 171° |
| 2026-04-14 09:06 | 51.08707 | -0.03170 | 6317 ft | 259 kts | 168° |
| 2026-04-14 09:06 | 51.06936 | -0.02414 | 7121 ft | 266 kts | 167° |
| 2026-04-14 09:06 | 51.05134 | -0.01568 | 7894 ft | 274 kts | 166° |
| 2026-04-14 09:06 | 51.03283 | -0.00676 | 8648 ft | 282 kts | 166° |
| 2026-04-14 09:07 | 51.01384 | 0.00243 | 9387 ft | 289 kts | 166° |
| 2026-04-14 09:07 | 50.99444 | 0.01179 | 10124 ft | 295 kts | 166° |
| 2026-04-14 09:07 | 50.97459 | 0.02127 | 10842 ft | 300 kts | 166° |
| 2026-04-14 09:07 | 50.95477 | 0.03068 | 11575 ft | 303 kts | 166° |
| 2026-04-14 09:08 | 50.93444 | 0.04031 | 12315 ft | 306 kts | 166° |
| 2026-04-14 09:08 | 50.91391 | 0.05000 | 13062 ft | 309 kts | 166° |
| 2026-04-14 09:08 | 50.89319 | 0.05975 | 13804 ft | 311 kts | 166° |
| 2026-04-14 09:08 | 50.87231 | 0.06957 | 14463 ft | 314 kts | 166° |
| 2026-04-14 09:09 | 50.85143 | 0.07936 | 15072 ft | 318 kts | 166° |
| 2026-04-14 09:09 | 50.83003 | 0.08938 | 15695 ft | 322 kts | 166° |
| 2026-04-14 09:09 | 50.80841 | 0.09951 | 16304 ft | 326 kts | 166° |
| 2026-04-14 09:09 | 50.78658 | 0.10971 | 16912 ft | 329 kts | 168° |
| 2026-04-14 09:10 | 50.76405 | 0.11591 | 17502 ft | 329 kts | 180° |
| 2026-04-14 09:10 | 50.74090 | 0.11455 | 17803 ft | 339 kts | 193° |
| 2026-04-14 09:10 | 50.71738 | 0.10638 | 17936 ft | 355 kts | 197° |
| 2026-04-14 09:10 | 50.69305 | 0.09727 | 18076 ft | 371 kts | 197° |
| 2026-04-14 09:11 | 50.66750 | 0.08786 | 18419 ft | 381 kts | 196° |
| 2026-04-14 09:11 | 50.64147 | 0.07839 | 18885 ft | 386 kts | 196° |
| 2026-04-14 09:11 | 50.61502 | 0.06884 | 19371 ft | 391 kts | 196° |
| 2026-04-14 09:11 | 50.58830 | 0.05924 | 19875 ft | 396 kts | 197° |
| 2026-04-14 09:12 | 50.56119 | 0.04952 | 20349 ft | 401 kts | 197° |
| 2026-04-14 09:12 | 50.53375 | 0.03969 | 20834 ft | 406 kts | 197° |
| 2026-04-14 09:12 | 50.50608 | 0.02976 | 21301 ft | 411 kts | 197° |
| 2026-04-14 09:12 | 50.47799 | 0.01966 | 21766 ft | 415 kts | 197° |
| 2026-04-14 09:13 | 50.44964 | 0.00948 | 22210 ft | 420 kts | 198° |
| 2026-04-14 09:13 | 50.42103 | -0.00079 | 22644 ft | 425 kts | 198° |
| 2026-04-14 09:13 | 50.39209 | -0.01116 | 23076 ft | 429 kts | 198° |
| 2026-04-14 09:13 | 50.36319 | -0.02149 | 23502 ft | 433 kts | 198° |
| 2026-04-14 09:14 | 50.33324 | -0.03215 | 23889 ft | 438 kts | 198° |
| 2026-04-14 09:14 | 50.30385 | -0.04261 | 24252 ft | 441 kts | 198° |
| 2026-04-14 09:14 | 50.27375 | -0.05330 | 24624 ft | 444 kts | 198° |
| 2026-04-14 09:14 | 50.24295 | -0.06108 | 24987 ft | 453 kts | 189° |
| 2026-04-14 09:15 | 50.21117 | -0.06069 | 25338 ft | 462 kts | 178° |
| 2026-04-14 09:15 | 50.17923 | -0.05153 | 25687 ft | 470 kts | 167° |
| 2026-04-14 09:15 | 50.14834 | -0.03379 | 26021 ft | 476 kts | 158° |
| 2026-04-14 09:15 | 50.11799 | -0.01256 | 26360 ft | 479 kts | 158° |
| 2026-04-14 09:16 | 50.08669 | 0.00534 | 26678 ft | 479 kts | 167° |
| 2026-04-14 09:16 | 50.05436 | 0.01834 | 27004 ft | 481 kts | 169° |
| 2026-04-14 09:16 | 50.02174 | 0.03108 | 27336 ft | 484 kts | 169° |
| 2026-04-14 09:16 | 49.98891 | 0.04385 | 27666 ft | 487 kts | 169° |
| 2026-04-14 09:17 | 49.95584 | 0.05677 | 27985 ft | 490 kts | 169° |
| 2026-04-14 09:17 | 49.92311 | 0.06959 | 28312 ft | 493 kts | 169° |
| 2026-04-14 09:17 | 49.88975 | 0.08271 | 28619 ft | 496 kts | 169° |
| 2026-04-14 09:17 | 49.85611 | 0.09594 | 28930 ft | 499 kts | 169° |
| 2026-04-14 09:18 | 49.82227 | 0.10922 | 29239 ft | 502 kts | 169° |
| 2026-04-14 09:18 | 49.78835 | 0.12250 | 29580 ft | 503 kts | 169° |
| 2026-04-14 09:18 | 49.75435 | 0.13577 | 30039 ft | 503 kts | 169° |
| 2026-04-14 09:18 | 49.72033 | 0.14903 | 30440 ft | 503 kts | 169° |
| 2026-04-14 09:19 | 49.68637 | 0.16224 | 30795 ft | 504 kts | 169° |
| 2026-04-14 09:19 | 49.65282 | 0.17533 | 31145 ft | 504 kts | 169° |
| 2026-04-14 09:19 | 49.61877 | 0.18888 | 31503 ft | 505 kts | 168° |
| 2026-04-14 09:19 | 49.58470 | 0.20266 | 31859 ft | 506 kts | 168° |
| 2026-04-14 09:20 | 49.55058 | 0.21656 | 32206 ft | 507 kts | 168° |
| 2026-04-14 09:20 | 49.51646 | 0.23044 | 32586 ft | 507 kts | 167° |
| 2026-04-14 09:20 | 49.48222 | 0.24431 | 32954 ft | 508 kts | 167° |
| 2026-04-14 09:20 | 49.44806 | 0.25807 | 33319 ft | 508 kts | 167° |
| 2026-04-14 09:21 | 49.41381 | 0.27178 | 33684 ft | 509 kts | 167° |
| 2026-04-14 09:21 | 49.37944 | 0.28545 | 34062 ft | 509 kts | 167° |
| 2026-04-14 09:21 | 49.34560 | 0.29887 | 34383 ft | 509 kts | 167° |
| 2026-04-14 09:21 | 49.31129 | 0.31249 | 34722 ft | 509 kts | 167° |
| 2026-04-14 09:22 | 49.27709 | 0.32631 | 35063 ft | 508 kts | 167° |
| 2026-04-14 09:22 | 49.24303 | 0.34051 | 35411 ft | 506 kts | 166° |
| 2026-04-14 09:22 | 49.20919 | 0.35491 | 35765 ft | 505 kts | 166° |
| 2026-04-14 09:22 | 49.17533 | 0.36944 | 36099 ft | 504 kts | 166° |
| 2026-04-14 09:23 | 49.14161 | 0.38387 | 36427 ft | 502 kts | 167° |
| 2026-04-14 09:23 | 49.10791 | 0.39817 | 36736 ft | 501 kts | 167° |
| 2026-04-14 09:23 | 49.07435 | 0.41231 | 37054 ft | 500 kts | 167° |
| 2026-04-14 09:23 | 49.04071 | 0.42641 | 37163 ft | 502 kts | 167° |
| 2026-04-14 09:24 | 48.97262 | 0.45468 | 37171 ft | 513 kts | 167° |
| 2026-04-14 09:24 | 48.90310 | 0.48352 | 37180 ft | 520 kts | 167° |
| 2026-04-14 09:25 | 48.83345 | 0.51260 | 37171 ft | 522 kts | 167° |
| 2026-04-14 09:25 | 48.76317 | 0.54158 | 37177 ft | 522 kts | 167° |
| 2026-04-14 09:26 | 48.69277 | 0.56928 | 37184 ft | 523 kts | 168° |
| 2026-04-14 09:26 | 48.62218 | 0.59628 | 37187 ft | 523 kts | 168° |
| 2026-04-14 09:27 | 48.55204 | 0.62340 | 37192 ft | 523 kts | 167° |
| 2026-04-14 09:27 | 48.48141 | 0.65124 | 37193 ft | 524 kts | 167° |
| 2026-04-14 09:28 | 48.41099 | 0.68009 | 37202 ft | 525 kts | 166° |
| 2026-04-14 09:28 | 48.34054 | 0.70913 | 37204 ft | 525 kts | 166° |
| 2026-04-14 09:29 | 48.26984 | 0.73776 | 37207 ft | 525 kts | 167° |
| 2026-04-14 09:29 | 48.19958 | 0.76578 | 37206 ft | 525 kts | 167° |
| 2026-04-14 09:30 | 48.12877 | 0.79347 | 37211 ft | 526 kts | 167° |
| 2026-04-14 09:30 | 48.05787 | 0.82114 | 37208 ft | 526 kts | 167° |
| 2026-04-14 09:31 | 47.98698 | 0.84883 | 37210 ft | 526 kts | 167° |
| 2026-04-14 09:31 | 47.91626 | 0.87654 | 37212 ft | 526 kts | 166° |
| 2026-04-14 09:32 | 47.84575 | 0.90400 | 37213 ft | 526 kts | 167° |
| 2026-04-14 09:33 | 47.73941 | 0.94514 | 37219 ft | 526 kts | 166° |
| 2026-04-14 09:33 | 47.66861 | 0.97254 | 37221 ft | 526 kts | 166° |
| 2026-04-14 09:34 | 47.59772 | 0.99986 | 37221 ft | 526 kts | 166° |
| 2026-04-14 09:34 | 47.52682 | 1.02699 | 37225 ft | 526 kts | 166° |
| 2026-04-14 09:35 | 47.45634 | 1.05377 | 37226 ft | 526 kts | 169° |
| 2026-04-14 09:35 | 47.38391 | 1.06342 | 37223 ft | 521 kts | 184° |
| 2026-04-14 09:36 | 47.31137 | 1.06156 | 37220 ft | 521 kts | 184° |
| 2026-04-14 09:36 | 47.23871 | 1.05998 | 37217 ft | 521 kts | 184° |
| 2026-04-14 09:37 | 47.16605 | 1.05827 | 37214 ft | 522 kts | 184° |
| 2026-04-14 09:37 | 47.09393 | 1.05656 | 37213 ft | 522 kts | 183° |
| 2026-04-14 09:38 | 47.02119 | 1.05488 | 37213 ft | 522 kts | 184° |
| 2026-04-14 09:38 | 46.94847 | 1.05228 | 37219 ft | 522 kts | 184° |
| 2026-04-14 09:39 | 46.87582 | 1.04883 | 37219 ft | 522 kts | 184° |
| 2026-04-14 09:39 | 46.80295 | 1.04544 | 37225 ft | 523 kts | 184° |
| 2026-04-14 09:40 | 46.73067 | 1.04227 | 37227 ft | 523 kts | 184° |
| 2026-04-14 09:40 | 46.65784 | 1.03924 | 37225 ft | 524 kts | 184° |
| 2026-04-14 09:41 | 46.58495 | 1.03629 | 37225 ft | 524 kts | 184° |
| 2026-04-14 09:41 | 46.51200 | 1.03711 | 37224 ft | 526 kts | 174° |
| 2026-04-14 09:42 | 46.44033 | 1.05866 | 37218 ft | 526 kts | 167° |
| 2026-04-14 09:42 | 46.36901 | 1.08249 | 37220 ft | 526 kts | 167° |
| 2026-04-14 09:43 | 46.29767 | 1.10628 | 37216 ft | 526 kts | 167° |
| 2026-04-14 09:43 | 46.22635 | 1.12996 | 37216 ft | 526 kts | 167° |
| 2026-04-14 09:44 | 46.15536 | 1.15349 | 37220 ft | 525 kts | 167° |
| 2026-04-14 09:44 | 46.08400 | 1.17710 | 37226 ft | 525 kts | 166° |
| 2026-04-14 09:45 | 46.01285 | 1.20069 | 37232 ft | 525 kts | 166° |
| 2026-04-14 09:45 | 45.94162 | 1.22421 | 37243 ft | 524 kts | 166° |
| 2026-04-14 09:46 | 45.87095 | 1.24724 | 37239 ft | 524 kts | 166° |
| 2026-04-14 09:46 | 45.79983 | 1.27042 | 37243 ft | 524 kts | 166° |
| 2026-04-14 09:47 | 45.72860 | 1.29366 | 37234 ft | 524 kts | 166° |
| 2026-04-14 09:47 | 45.65747 | 1.31680 | 37223 ft | 523 kts | 166° |
| 2026-04-14 09:48 | 45.58643 | 1.33990 | 37217 ft | 523 kts | 166° |
| 2026-04-14 09:48 | 45.51555 | 1.36289 | 37205 ft | 522 kts | 166° |
| 2026-04-14 09:49 | 45.45663 | 1.38201 | 37205 ft | 522 kts | 166° |
| 2026-04-14 09:49 | 45.37435 | 1.40858 | 37210 ft | 522 kts | 166° |
| 2026-04-14 09:50 | 45.30349 | 1.43125 | 37222 ft | 522 kts | 166° |
| 2026-04-14 09:50 | 45.24415 | 1.45022 | 37229 ft | 521 kts | 166° |
| 2026-04-14 09:51 | 45.17330 | 1.47288 | 37239 ft | 521 kts | 166° |
| 2026-04-14 09:51 | 45.10299 | 1.49535 | 37243 ft | 521 kts | 166° |
| 2026-04-14 09:52 | 45.03231 | 1.51773 | 37243 ft | 521 kts | 166° |
| 2026-04-14 09:52 | 44.96150 | 1.54005 | 37245 ft | 520 kts | 166° |
| 2026-04-14 09:53 | 44.89084 | 1.56250 | 37234 ft | 520 kts | 166° |
| 2026-04-14 09:53 | 44.82011 | 1.58495 | 37227 ft | 520 kts | 166° |
| 2026-04-14 09:54 | 44.74945 | 1.60727 | 37219 ft | 520 kts | 166° |
| 2026-04-14 09:54 | 44.67881 | 1.62948 | 37212 ft | 519 kts | 166° |
| 2026-04-14 09:55 | 44.60870 | 1.65144 | 37212 ft | 519 kts | 166° |
| 2026-04-14 09:55 | 44.53822 | 1.67336 | 37212 ft | 519 kts | 166° |
| 2026-04-14 09:56 | 44.46769 | 1.69535 | 37210 ft | 519 kts | 166° |
| 2026-04-14 09:56 | 44.39728 | 1.71727 | 37210 ft | 518 kts | 166° |
| 2026-04-14 09:57 | 44.32723 | 1.73901 | 37212 ft | 518 kts | 166° |
| 2026-04-14 09:57 | 44.25665 | 1.75948 | 37210 ft | 518 kts | 169° |
| 2026-04-14 09:58 | 44.18540 | 1.77502 | 37214 ft | 518 kts | 171° |
| 2026-04-14 09:58 | 44.11402 | 1.78901 | 37214 ft | 518 kts | 171° |
| 2026-04-14 09:59 | 44.04266 | 1.80410 | 37216 ft | 518 kts | 169° |
| 2026-04-14 09:59 | 43.97138 | 1.82006 | 37222 ft | 518 kts | 169° |
| 2026-04-14 10:00 | 43.89980 | 1.83259 | 37224 ft | 518 kts | 174° |
| 2026-04-14 10:00 | 43.82820 | 1.83856 | 37230 ft | 519 kts | 177° |
| 2026-04-14 10:01 | 43.75607 | 1.84326 | 37231 ft | 519 kts | 176° |
| 2026-04-14 10:01 | 43.68411 | 1.84957 | 37239 ft | 519 kts | 175° |
| 2026-04-14 10:02 | 43.61203 | 1.85705 | 37240 ft | 519 kts | 175° |
| 2026-04-14 10:02 | 43.53996 | 1.86451 | 37241 ft | 518 kts | 175° |
| 2026-04-14 10:03 | 43.46838 | 1.87142 | 37220 ft | 518 kts | 175° |
| 2026-04-14 10:03 | 43.39650 | 1.87812 | 37201 ft | 517 kts | 175° |
| 2026-04-14 10:04 | 43.32466 | 1.88490 | 37223 ft | 517 kts | 175° |
| 2026-04-14 10:04 | 43.25290 | 1.89181 | 37227 ft | 517 kts | 175° |
| 2026-04-14 10:05 | 43.18154 | 1.89872 | 37231 ft | 517 kts | 175° |
| 2026-04-14 10:05 | 43.10978 | 1.90552 | 37226 ft | 516 kts | 175° |
| 2026-04-14 10:06 | 43.03796 | 1.91226 | 37231 ft | 516 kts | 175° |
| 2026-04-14 10:06 | 42.96637 | 1.91896 | 37225 ft | 514 kts | 175° |
| 2026-04-14 10:07 | 42.89500 | 1.92570 | 37225 ft | 513 kts | 175° |
| 2026-04-14 10:07 | 42.82418 | 1.93233 | 37216 ft | 513 kts | 175° |
| 2026-04-14 10:08 | 42.75294 | 1.93902 | 37221 ft | 512 kts | 175° |
| 2026-04-14 10:08 | 42.68188 | 1.94574 | 37189 ft | 511 kts | 175° |
| 2026-04-14 10:09 | 42.61122 | 1.95615 | 37185 ft | 510 kts | 171° |
| 2026-04-14 10:09 | 42.54110 | 1.97174 | 37161 ft | 509 kts | 169° |
| 2026-04-14 10:10 | 42.47120 | 1.98769 | 37148 ft | 509 kts | 169° |
| 2026-04-14 10:10 | 42.40154 | 2.00203 | 37136 ft | 509 kts | 171° |
| 2026-04-14 10:11 | 42.33118 | 2.01421 | 37124 ft | 509 kts | 174° |
| 2026-04-14 10:11 | 42.26039 | 2.02066 | 37110 ft | 509 kts | 176° |
| 2026-04-14 10:12 | 42.18962 | 2.02534 | 37105 ft | 509 kts | 176° |
| 2026-04-14 10:12 | 42.11951 | 2.03125 | 37097 ft | 508 kts | 175° |
| 2026-04-14 10:13 | 42.04894 | 2.03832 | 37099 ft | 507 kts | 175° |
| 2026-04-14 10:13 | 41.97862 | 2.04529 | 37099 ft | 507 kts | 175° |
| 2026-04-14 10:14 | 41.90827 | 2.05189 | 37104 ft | 506 kts | 175° |
| 2026-04-14 10:14 | 41.83803 | 2.05840 | 37102 ft | 505 kts | 175° |
| 2026-04-14 10:15 | 41.76787 | 2.06502 | 37112 ft | 505 kts | 175° |
| 2026-04-14 10:15 | 41.69774 | 2.07156 | 37110 ft | 504 kts | 175° |
| 2026-04-14 10:16 | 41.62821 | 2.07798 | 37117 ft | 503 kts | 175° |
| 2026-04-14 10:16 | 41.55838 | 2.08446 | 37114 ft | 502 kts | 175° |
| 2026-04-14 10:17 | 41.48864 | 2.09100 | 37119 ft | 502 kts | 175° |
| 2026-04-14 10:17 | 41.41903 | 2.09751 | 37112 ft | 501 kts | 175° |
| 2026-04-14 10:18 | 41.31476 | 2.10709 | 37116 ft | 500 kts | 175° |
| 2026-04-14 10:18 | 41.24551 | 2.11599 | 37112 ft | 499 kts | 172° |
| 2026-04-14 10:19 | 41.17676 | 2.12859 | 37113 ft | 498 kts | 171° |
| 2026-04-14 10:19 | 41.10809 | 2.14140 | 37115 ft | 498 kts | 172° |
| 2026-04-14 10:20 | 41.03933 | 2.15318 | 37120 ft | 498 kts | 172° |
| 2026-04-14 10:20 | 40.97100 | 2.16419 | 37126 ft | 498 kts | 173° |
| 2026-04-14 10:21 | 40.90231 | 2.17536 | 37126 ft | 497 kts | 172° |
| 2026-04-14 10:21 | 40.83361 | 2.18687 | 37127 ft | 497 kts | 172° |
| 2026-04-14 10:22 | 40.76537 | 2.19830 | 37128 ft | 496 kts | 172° |
| 2026-04-14 10:22 | 40.69682 | 2.20954 | 37120 ft | 496 kts | 173° |
| 2026-04-14 10:23 | 40.62835 | 2.22079 | 37118 ft | 495 kts | 173° |
| 2026-04-14 10:23 | 40.55999 | 2.23210 | 37115 ft | 495 kts | 173° |
| 2026-04-14 10:24 | 40.49163 | 2.24334 | 37119 ft | 494 kts | 173° |
| 2026-04-14 10:24 | 40.42339 | 2.25450 | 37107 ft | 494 kts | 172° |
| 2026-04-14 10:25 | 40.35603 | 2.26870 | 37109 ft | 493 kts | 168° |
| 2026-04-14 10:25 | 40.28889 | 2.28731 | 37105 ft | 493 kts | 167° |
| 2026-04-14 10:26 | 40.22174 | 2.30626 | 37105 ft | 493 kts | 168° |
| 2026-04-14 10:26 | 40.15443 | 2.32387 | 37103 ft | 493 kts | 168° |
| 2026-04-14 10:27 | 40.08813 | 2.34060 | 37079 ft | 480 kts | 169° |
| 2026-04-14 10:27 | 40.02302 | 2.35710 | 37075 ft | 478 kts | 169° |
| 2026-04-14 10:28 | 39.95779 | 2.37378 | 37076 ft | 477 kts | 168° |
| 2026-04-14 10:28 | 39.89263 | 2.39054 | 36988 ft | 477 kts | 168° |
| 2026-04-14 10:29 | 39.86007 | 2.39887 | 36738 ft | 476 kts | 168° |
| 2026-04-14 10:29 | 39.82752 | 2.40719 | 36479 ft | 476 kts | 168° |
| 2026-04-14 10:29 | 39.79496 | 2.41549 | 36224 ft | 476 kts | 168° |
| 2026-04-14 10:29 | 39.76228 | 2.42197 | 35903 ft | 475 kts | 175° |
| 2026-04-14 10:30 | 39.72919 | 2.42297 | 35168 ft | 477 kts | 184° |
| 2026-04-14 10:30 | 39.69649 | 2.41857 | 34428 ft | 479 kts | 188° |
| 2026-04-14 10:30 | 39.66323 | 2.41323 | 33544 ft | 482 kts | 187° |
| 2026-04-14 10:30 | 39.62990 | 2.40797 | 32741 ft | 482 kts | 187° |
| 2026-04-14 10:31 | 39.59665 | 2.40204 | 32058 ft | 479 kts | 191° |
| 2026-04-14 10:31 | 39.56465 | 2.39150 | 31586 ft | 471 kts | 199° |
| 2026-04-14 10:31 | 39.53432 | 2.37585 | 31059 ft | 465 kts | 207° |
| 2026-04-14 10:31 | 39.50666 | 2.35571 | 30559 ft | 459 kts | 214° |
| 2026-04-14 10:32 | 39.48076 | 2.33178 | 30022 ft | 454 kts | 217° |
| 2026-04-14 10:32 | 39.45535 | 2.30790 | 29482 ft | 448 kts | 217° |
| 2026-04-14 10:32 | 39.43023 | 2.28442 | 28991 ft | 442 kts | 217° |
| 2026-04-14 10:32 | 39.40543 | 2.26134 | 28489 ft | 437 kts | 217° |
| 2026-04-14 10:33 | 39.38086 | 2.23855 | 27988 ft | 432 kts | 217° |
| 2026-04-14 10:33 | 39.35655 | 2.21609 | 27504 ft | 427 kts | 217° |
| 2026-04-14 10:33 | 39.33245 | 2.19385 | 27023 ft | 423 kts | 217° |
| 2026-04-14 10:33 | 39.30863 | 2.17185 | 26542 ft | 419 kts | 217° |
| 2026-04-14 10:34 | 39.26166 | 2.12834 | 25619 ft | 413 kts | 217° |
| 2026-04-14 10:34 | 39.23840 | 2.10677 | 25175 ft | 410 kts | 217° |
| 2026-04-14 10:34 | 39.21531 | 2.08538 | 24731 ft | 407 kts | 217° |
| 2026-04-14 10:35 | 39.19239 | 2.06418 | 24301 ft | 405 kts | 217° |
| 2026-04-14 10:35 | 39.16974 | 2.04330 | 23888 ft | 403 kts | 217° |
| 2026-04-14 10:35 | 39.14696 | 2.02232 | 23422 ft | 401 kts | 217° |
| 2026-04-14 10:35 | 39.12434 | 2.00147 | 23013 ft | 397 kts | 217° |
| 2026-04-14 10:36 | 39.10190 | 1.98080 | 22595 ft | 393 kts | 217° |
| 2026-04-14 10:36 | 39.07973 | 1.96042 | 22192 ft | 389 kts | 217° |
| 2026-04-14 10:36 | 39.06516 | 1.94703 | 21913 ft | 387 kts | 217° |
| 2026-04-14 10:36 | 39.04338 | 1.92701 | 21507 ft | 383 kts | 217° |
| 2026-04-14 10:37 | 39.02178 | 1.90715 | 21081 ft | 380 kts | 217° |
| 2026-04-14 10:37 | 39.00051 | 1.88723 | 20657 ft | 375 kts | 220° |
| 2026-04-14 10:37 | 38.98163 | 1.86443 | 20212 ft | 371 kts | 230° |
| 2026-04-14 10:37 | 38.96140 | 1.82950 | 19631 ft | 366 kts | 238° |
| 2026-04-14 10:38 | 38.95188 | 1.81112 | 19327 ft | 365 kts | 238° |
| 2026-04-14 10:38 | 38.93778 | 1.78407 | 18870 ft | 364 kts | 238° |
| 2026-04-14 10:38 | 38.92382 | 1.75749 | 18425 ft | 363 kts | 238° |
| 2026-04-14 10:38 | 38.90969 | 1.73067 | 17919 ft | 361 kts | 238° |
| 2026-04-14 10:39 | 38.89703 | 1.70663 | 17515 ft | 359 kts | 238° |
| 2026-04-14 10:39 | 38.88308 | 1.68017 | 17049 ft | 357 kts | 238° |
| 2026-04-14 10:39 | 38.86922 | 1.65383 | 16593 ft | 354 kts | 238° |
| 2026-04-14 10:39 | 38.85550 | 1.62771 | 16136 ft | 352 kts | 238° |
| 2026-04-14 10:40 | 38.84261 | 1.60117 | 15690 ft | 348 kts | 245° |
| 2026-04-14 10:40 | 38.83350 | 1.57258 | 15216 ft | 344 kts | 256° |
| 2026-04-14 10:40 | 38.82709 | 1.54312 | 14758 ft | 342 kts | 257° |
| 2026-04-14 10:40 | 38.82064 | 1.51374 | 14295 ft | 341 kts | 257° |
| 2026-04-14 10:41 | 38.81422 | 1.48487 | 13831 ft | 340 kts | 257° |
| 2026-04-14 10:41 | 38.80771 | 1.45578 | 13332 ft | 338 kts | 257° |
| 2026-04-14 10:41 | 38.80028 | 1.42719 | 12856 ft | 338 kts | 249° |
| 2026-04-14 10:41 | 38.78960 | 1.40037 | 12462 ft | 335 kts | 244° |
| 2026-04-14 10:42 | 38.77886 | 1.37454 | 12326 ft | 323 kts | 245° |
| 2026-04-14 10:42 | 38.76847 | 1.34956 | 12202 ft | 312 kts | 245° |
| 2026-04-14 10:42 | 38.75844 | 1.32542 | 12065 ft | 302 kts | 245° |
| 2026-04-14 10:42 | 38.74876 | 1.30210 | 11941 ft | 292 kts | 245° |
| 2026-04-14 10:43 | 38.73935 | 1.27943 | 11814 ft | 283 kts | 245° |
| 2026-04-14 10:43 | 38.73022 | 1.25746 | 11683 ft | 275 kts | 245° |
| 2026-04-14 10:43 | 38.72146 | 1.23644 | 11391 ft | 268 kts | 245° |
| 2026-04-14 10:43 | 38.71270 | 1.21539 | 10915 ft | 267 kts | 245° |
| 2026-04-14 10:44 | 38.70401 | 1.19450 | 10678 ft | 265 kts | 245° |
| 2026-04-14 10:44 | 38.69532 | 1.17374 | 10383 ft | 264 kts | 245° |
| 2026-04-14 10:44 | 38.68664 | 1.15303 | 10099 ft | 263 kts | 245° |
| 2026-04-14 10:44 | 38.67802 | 1.13237 | 9804 ft | 262 kts | 245° |
| 2026-04-14 10:45 | 38.66945 | 1.11182 | 9509 ft | 261 kts | 245° |
| 2026-04-14 10:45 | 38.66093 | 1.09145 | 9080 ft | 258 kts | 246° |
| 2026-04-14 10:45 | 38.65245 | 1.07123 | 8554 ft | 257 kts | 245° |
| 2026-04-14 10:45 | 38.64537 | 1.05059 | 8050 ft | 251 kts | 259° |
| 2026-04-14 10:46 | 38.64229 | 1.02880 | 7698 ft | 249 kts | 265° |
| 2026-04-14 10:46 | 38.63967 | 1.00694 | 7396 ft | 248 kts | 267° |
| 2026-04-14 10:46 | 38.64087 | 0.98553 | 7113 ft | 239 kts | 291° |
| 2026-04-14 10:46 | 38.64874 | 0.96783 | 6904 ft | 227 kts | 316° |
| 2026-04-14 10:47 | 38.66112 | 0.95647 | 6768 ft | 215 kts | 339° |
| 2026-04-14 10:47 | 38.67529 | 0.95260 | 6648 ft | 205 kts | 0° |
| 2026-04-14 10:47 | 38.68914 | 0.95587 | 6507 ft | 204 kts | 20° |
| 2026-04-14 10:47 | 38.70114 | 0.96569 | 6190 ft | 209 kts | 42° |
| 2026-04-14 10:48 | 38.70943 | 0.98110 | 5899 ft | 213 kts | 57° |
| 2026-04-14 10:48 | 38.71640 | 0.99777 | 5620 ft | 212 kts | 57° |
| 2026-04-14 10:48 | 38.72334 | 1.01435 | 5363 ft | 210 kts | 57° |
| 2026-04-14 10:48 | 38.73019 | 1.03070 | 5133 ft | 207 kts | 57° |
| 2026-04-14 10:49 | 38.73683 | 1.04658 | 5023 ft | 197 kts | 57° |
| 2026-04-14 10:49 | 38.74313 | 1.06164 | 5011 ft | 189 kts | 56° |
| 2026-04-14 10:49 | 38.74934 | 1.07645 | 5001 ft | 188 kts | 56° |
| 2026-04-14 10:49 | 38.75544 | 1.09104 | 4842 ft | 187 kts | 56° |
| 2026-04-14 10:50 | 38.76163 | 1.10584 | 4607 ft | 185 kts | 56° |
| 2026-04-14 10:50 | 38.76762 | 1.12018 | 4363 ft | 184 kts | 56° |
| 2026-04-14 10:50 | 38.77367 | 1.13467 | 4116 ft | 184 kts | 56° |
| 2026-04-14 10:50 | 38.77894 | 1.14727 | 3896 ft | 183 kts | 56° |
| 2026-04-14 10:51 | 38.78490 | 1.16156 | 3685 ft | 181 kts | 56° |
| 2026-04-14 10:51 | 38.79083 | 1.17579 | 3411 ft | 180 kts | 56° |
| 2026-04-14 10:51 | 38.79670 | 1.18987 | 3164 ft | 178 kts | 55° |
| 2026-04-14 10:51 | 38.80249 | 1.20377 | 2925 ft | 175 kts | 56° |
| 2026-04-14 10:52 | 38.80816 | 1.21738 | 2694 ft | 172 kts | 56° |
| 2026-04-14 10:52 | 38.81373 | 1.23077 | 2462 ft | 169 kts | 56° |
| 2026-04-14 10:52 | 38.81921 | 1.24393 | 2224 ft | 166 kts | 56° |
| 2026-04-14 10:52 | 38.82457 | 1.25683 | 1986 ft | 160 kts | 56° |
| 2026-04-14 10:53 | 38.82972 | 1.26920 | 1793 ft | 158 kts | 55° |
| 2026-04-14 10:53 | 38.83485 | 1.28154 | 1577 ft | 154 kts | 54° |
| 2026-04-14 10:53 | 38.83970 | 1.29322 | 1293 ft | 145 kts | 55° |
| 2026-04-14 10:53 | 38.84437 | 1.30441 | 944 ft | 140 kts | 56° |
| 2026-04-14 10:54 | 38.84875 | 1.31546 | 840 ft | 139 kts | 56° |
| 2026-04-14 10:54 | 38.85342 | 1.32641 | 618 ft | 139 kts | 54° |
| 2026-04-14 10:54 | 38.85813 | 1.33753 | 417 ft | 143 kts | 56° |
| 2026-04-14 10:54 | 38.86286 | 1.34876 | 218 ft | 144 kts | 59° |
| 2026-04-14 10:55 | 38.86749 | 1.36017 | 39 ft | 144 kts | 59° |
| 2026-04-14 10:55 | 38.87149 | 1.36971 | 9 ft | 121 kts | 61° |
| 2026-04-14 10:55 | 38.87487 | 1.37794 | 5 ft | 88 kts | 62° |
| 2026-04-14 10:55 | 38.87636 | 1.38167 | 8 ft | 23 kts | 61° |
| 2026-04-14 10:56 | 38.87692 | 1.38241 | 6 ft | 7 kts | 18° |
| 2026-04-14 10:56 | 38.87750 | 1.38228 | 7 ft | 10 kts | 336° |
| 2026-04-14 10:56 | 38.87811 | 1.38182 | 8 ft | 9 kts | 319° |
| 2026-04-14 10:56 | 38.87801 | 1.38109 | 8 ft | 10 kts | 233° |
| 2026-04-14 10:57 | 38.87764 | 1.38023 | 8 ft | 12 kts | 242° |
| 2026-04-14 10:57 | 38.87720 | 1.37913 | 9 ft | 15 kts | 243° |
| 2026-04-14 10:57 | 38.87665 | 1.37778 | 8 ft | 19 kts | 240° |
| 2026-04-14 10:57 | 38.87626 | 1.37687 | 8 ft | 7 kts | 242° |
| 2026-04-14 10:58 | 38.87598 | 1.37622 | 8 ft | 10 kts | 240° |
| 2026-04-14 10:58 | 38.87590 | 1.37557 | 8 ft | 8 kts | 300° |
| 2026-04-14 10:58 | 38.87639 | 1.37519 | 8 ft | 10 kts | 335° |
| 2026-04-14 10:58 | 38.87680 | 1.37492 | 10 ft | 4 kts | 329° |
| 2026-04-14 10:59 | 38.87699 | 1.37449 | 8 ft | 7 kts | 281° |
| 2026-04-14 10:59 | 38.87678 | 1.37381 | 9 ft | 10 kts | 241° |
| 2026-04-14 10:59 | 38.87643 | 1.37299 | 8 ft | 9 kts | 242° |
| 2026-04-14 10:59 | 38.87608 | 1.37214 | 10 ft | 12 kts | 242° |
| 2026-04-14 11:00 | 38.87563 | 1.37105 | 8 ft | 15 kts | 242° |
| 2026-04-14 11:00 | 38.87508 | 1.36971 | 10 ft | 18 kts | 242° |
| 2026-04-14 11:00 | 38.87456 | 1.36843 | 8 ft | 12 kts | 242° |
| 2026-04-14 11:00 | 38.87382 | 1.36811 | 8 ft | 14 kts | 155° |
| 2026-04-14 11:01 | 38.87305 | 1.36864 | 9 ft | 12 kts | 132° |
| 2026-04-14 11:01 | 38.87327 | 1.36968 | 8 ft | 14 kts | 61° |
| 2026-04-14 11:01 | 38.87361 | 1.37048 | 8 ft | 9 kts | 61° |
| 2026-04-14 11:01 | 38.87386 | 1.37098 | 8 ft | 6 kts | 37° |
| 2026-04-14 11:02 | 38.87428 | 1.37081 | 10 ft | 8 kts | 328° |
| 2026-04-14 11:02 | 38.87473 | 1.37051 | 8 ft | 4 kts | 333° |
| 2026-04-14 11:02 | 38.87478 | 1.37048 | 8 ft | 0 kts | 332° |